NCAR-RAP Real-Time Weather Data

Output produced by METARs form (06 May 2021  15:36 UTC)
found at http://weather.rap.ucar.edu/surface/
 
KMEI 061458Z 02009G15KT 350V050 10SM CLR 20/10 A3018 RMK AO2 SLP219 T02000100 50010
KMEI 061358Z 33009KT 10SM CLR 17/12 A3019 RMK AO2 SLP222 T01720122
KMEI 061258Z 35003KT 10SM CLR 15/12 A3017 RMK AO2 SLP214 T01500117
KMEI 061158Z 35004KT 10SM CLR 13/11 A3015 RMK AO2 SLP209 T01280106 10139 20122 51012
KMEI 061058Z 02005KT 10SM CLR 12/10 A3015 RMK AO2 SLP206 T01220100
KMEI 060958Z AUTO 01006KT 10SM CLR 13/10 A3013 RMK AO2 SLP201 T01280100
KMEI 060858Z AUTO 34005KT 10SM CLR 13/11 A3012 RMK AO2 SLP197 T01280106 53009
KMEI 060758Z AUTO 00000KT 10SM R01/4500VP6000FT CLR 12/11 A3010 RMK AO2 SLP192 T01220106
KMEI 060739Z AUTO 00000KT 10SM R01/1400V2600FT SCT002 13/11 A3010 RMK AO2 T01280111
KMEI 060727Z AUTO 00000KT 10SM R01/1400V2200FT BKN002 13/11 A3010 RMK AO2 T01330111
KMEI 060719Z AUTO 00000KT 10SM R01/2000VP6000FT SCT002 13/11 A3010 RMK AO2 T01330111
KMEI 060658Z AUTO 00000KT 10SM R01/2000VP6000FT CLR 13/11 A3010 RMK AO2 SLP189 T01330111
KMEI 060558Z AUTO 00000KT 10SM R01/6000VP6000FT CLR 14/12 A3009 RMK AO2 SLP187 T01390117 10211 20139 402390139 58005
KMEI 060458Z AUTO 00000KT 10SM R01/5000VP6000FT CLR 14/12 A3010 RMK AO2 SLP190 T01440122
KMEI 060358Z AUTO 00000KT 10SM CLR 15/13 A3011 RMK AO2 SLP193 T01500133
KMEI 060258Z 00000KT 10SM CLR 17/14 A3011 RMK AO2 SLP194 T01670144 53015
KMEI 060158Z 00000KT 10SM CLR 17/15 A3009 RMK AO2 SLP186 T01720150
KMEI 060058Z 31003KT 10SM CLR 18/15 A3008 RMK AO2 SLP182 T01830150